Time;durP1;ratioP1;P1;durP2;ratioP2;P2;SDS_P1;SDS_P2;PMS_P1;PMS_P2;Temp;Humidity;BMP_temperature;BMP_pressure;BME280_temperature;BME280_humidity;BME280_pressure;Samples;Min_cycle;Max_cycle;Signal;HPM_P1;HPM_P2
2022/11/10 00:00:46;;;;;;;;;;;27.80;77.90;;;;;;5061793;28;19920;-74
2022/11/10 00:03:13;;;;;;;;;;;27.70;75.20;;;;;;5056826;28;19916;-73
2022/11/10 00:05:40;;;;;;;;;;;27.10;76.70;;;;;;5055856;28;19919;-74
2022/11/10 00:08:09;;;;;;;;;;;27.00;76.90;;;;;;5059097;28;19966;-73
2022/11/10 00:10:55;;;;;;;;;;;27.00;79.40;;;;;;5055933;28;20439;-73
2022/11/10 00:13:26;;;;;;;;;;;27.10;77.90;;;;;;5064793;28;20308;-75
2022/11/10 00:18:39;;;;;;;;;;;27.60;77.30;;;;;;5059752;28;19947;-74
2022/11/10 00:21:06;;;;;;;;;;;28.00;78.00;;;;;;5061704;28;20263;-70
2022/11/10 00:23:33;;;;;;;;;;;28.20;76.70;;;;;;5064593;28;19912;-73
2022/11/10 00:26:00;;;;;;;;;;;28.20;76.60;;;;;;5068259;28;20026;-72
2022/11/10 00:28:28;;;;;;;;;;;28.40;76.20;;;;;;5065484;28;19936;-72
2022/11/10 00:30:55;;;;;;;;;;;28.20;76.70;;;;;;5064592;28;19958;-71
2022/11/10 00:33:22;;;;;;;;;;;27.80;76.30;;;;;;5063735;28;19916;-75
2022/11/10 00:35:48;;;;;;;;;;;27.30;77.30;;;;;;5063447;28;19912;-81
2022/11/10 00:38:15;;;;;;;;;;;27.50;78.80;;;;;;5065740;28;20024;-72
2022/11/10 00:40:42;;;;;;;;;;;28.00;78.50;;;;;;5066063;28;19916;-73
2022/11/10 00:43:08;;;;;;;;;;;28.60;76.80;;;;;;5062494;28;19927;-72
2022/11/10 00:45:35;;;;;;;;;;;28.60;76.00;;;;;;5060860;28;19927;-73
2022/11/10 00:48:02;;;;;;;;;;;28.40;77.20;;;;;;5058262;28;19916;-78
2022/11/10 00:50:28;;;;;;;;;;;28.50;76.50;;;;;;5066441;28;19920;-77
2022/11/10 00:52:55;;;;;;;;;;;28.70;77.30;;;;;;5064860;28;19997;-76
2022/11/10 00:55:22;;;;;;;;;;;28.80;76.20;;;;;;5071547;28;19912;-76
2022/11/10 00:57:48;;;;;;;;;;;28.20;76.50;;;;;;5069256;28;19947;-75
2022/11/10 01:00:15;;;;;;;;;;;27.40;77.10;;;;;;5064642;28;20033;-73
2022/11/10 01:02:42;;;;;;;;;;;27.30;78.50;;;;;;5066410;28;19916;-75
2022/11/10 01:05:08;;;;;;;;;;;27.50;78.10;;;;;;5071199;28;19916;-74
2022/11/10 01:07:35;;;;;;;;;;;27.50;78.00;;;;;;5059086;28;20020;-74
2022/11/10 01:10:02;;;;;;;;;;;27.20;78.50;;;;;;5072546;28;19925;-74
2022/11/10 01:12:29;;;;;;;;;;;27.00;78.90;;;;;;5070063;28;19916;-74
2022/11/10 01:14:56;;;;;;;;;;;27.40;81.50;;;;;;5065431;28;20003;-69
2022/11/10 01:17:23;;;;;;;;;;;28.30;81.70;;;;;;5070512;28;19920;-74
2022/11/10 01:19:49;;;;;;;;;;;29.10;78.00;;;;;;5060654;28;19919;-75
2022/11/10 01:22:16;;;;;;;;;;;29.70;77.20;;;;;;5060758;28;20281;-76
2022/11/10 01:24:43;;;;;;;;;;;30.10;77.10;;;;;;5070463;28;19930;-75
2022/11/10 01:27:09;;;;;;;;;;;30.20;75.80;;;;;;5068807;28;19920;-75
2022/11/10 01:29:36;;;;;;;;;;;29.60;74.80;;;;;;5069603;28;19967;-73
2022/11/10 01:32:02;;;;;;;;;;;28.60;76.30;;;;;;5071079;28;19916;-74
2022/11/10 01:34:29;;;;;;;;;;;28.30;79.30;;;;;;5072540;28;19913;-75
2022/11/10 01:36:56;;;;;;;;;;;27.80;78.50;;;;;;5058935;28;20309;-74
2022/11/10 01:39:22;;;;;;;;;;;27.60;78.50;;;;;;5072462;28;19966;-74
2022/11/10 01:41:49;;;;;;;;;;;27.50;79.10;;;;;;5066662;28;19913;-73
2022/11/10 01:44:23;;;;;;;;;;;28.00;78.90;;;;;;5065426;28;19948;-74
2022/11/10 01:46:50;;;;;;;;;;;28.40;78.10;;;;;;5076077;28;19923;-75
2022/11/10 01:49:19;;;;;;;;;;;28.90;76.50;;;;;;5071678;28;20357;-75
2022/11/10 01:51:55;;;;;;;;;;;29.70;78.00;;;;;;5053812;28;19920;-75
2022/11/10 01:54:25;;;;;;;;;;;30.30;75.60;;;;;;5069422;28;19974;-74
2022/11/10 01:56:54;;;;;;;;;;;30.70;78.10;;;;;;5072291;28;19916;-74
2022/11/10 01:59:27;;;;;;;;;;;31.10;74.80;;;;;;5067657;28;19976;-74
2022/11/10 02:01:57;;;;;;;;;;;31.10;74.80;;;;;;5073788;28;19920;-75
2022/11/10 02:04:25;;;;;;;;;;;30.90;75.20;;;;;;5066549;28;20553;-75
2022/11/10 02:06:51;;;;;;;;;;;30.50;75.80;;;;;;5064304;28;19981;-75
2022/11/10 02:09:18;;;;;;;;;;;29.20;76.90;;;;;;5067985;28;19952;-74
2022/11/10 02:11:45;;;;;;;;;;;28.30;78.50;;;;;;5079556;28;19982;-75
2022/11/10 02:14:12;;;;;;;;;;;27.70;78.80;;;;;;5072366;28;19947;-75
2022/11/10 02:16:39;;;;;;;;;;;28.20;80.00;;;;;;5052993;28;19916;-73
2022/11/10 02:19:21;;;;;;;;;;;28.50;78.80;;;;;;5065189;28;19916;-74
2022/11/10 02:21:48;;;;;;;;;;;28.50;78.50;;;;;;5061451;28;20388;-74
2022/11/10 02:24:14;;;;;;;;;;;28.60;78.10;;;;;;5067241;28;19912;-75
2022/11/10 02:26:52;;;;;;;;;;;28.10;78.30;;;;;;5059081;28;19912;-73
2022/11/10 02:29:19;;;;;;;;;;;27.80;79.80;;;;;;5058697;28;19913;-74
2022/11/10 02:31:46;;;;;;;;;;;27.40;79.50;;;;;;5062878;28;19940;-74
2022/11/10 02:34:13;;;;;;;;;;;27.00;79.20;;;;;;5083422;28;19919;-75
2022/11/10 02:36:39;;;;;;;;;;;26.90;81.60;;;;;;5085353;28;19916;-75
2022/11/10 02:39:06;;;;;;;;;;;27.30;80.00;;;;;;5067481;28;19920;-75
2022/11/10 02:41:33;;;;;;;;;;;27.40;80.60;;;;;;5065229;28;20561;-76
2022/11/10 02:44:00;;;;;;;;;;;27.30;80.50;;;;;;5080017;28;19995;-71
2022/11/10 02:46:26;;;;;;;;;;;27.00;80.10;;;;;;5074218;28;19917;-74
2022/11/10 02:48:53;;;;;;;;;;;26.70;80.50;;;;;;5068987;28;19916;-75
2022/11/10 02:51:20;;;;;;;;;;;26.50;80.60;;;;;;5071635;28;19918;-74
2022/11/10 02:53:46;;;;;;;;;;;26.20;80.30;;;;;;5074447;28;19962;-74
2022/11/10 02:56:13;;;;;;;;;;;25.80;81.40;;;;;;5065772;28;19917;-74
2022/11/10 02:58:40;;;;;;;;;;;25.70;82.60;;;;;;5069636;28;19931;-74
2022/11/10 03:01:06;;;;;;;;;;;25.70;83.90;;;;;;5068765;28;19917;-72
2022/11/10 03:03:33;;;;;;;;;;;25.80;84.20;;;;;;5075252;28;19970;-74
2022/11/10 03:06:00;;;;;;;;;;;25.80;84.30;;;;;;5062545;28;19995;-74
2022/11/10 03:08:26;;;;;;;;;;;26.00;84.40;;;;;;5059182;28;20274;-73
2022/11/10 03:10:54;;;;;;;;;;;26.00;84.40;;;;;;5050558;28;19913;-73
2022/11/10 03:13:21;;;;;;;;;;;26.00;83.10;;;;;;5069113;28;20370;-74
2022/11/10 03:15:48;;;;;;;;;;;26.00;83.60;;;;;;5067730;28;19958;-73
2022/11/10 03:18:14;;;;;;;;;;;26.10;83.90;;;;;;5061538;28;19920;-74
2022/11/10 03:20:41;;;;;;;;;;;26.50;83.20;;;;;;5053234;28;19923;-72
2022/11/10 03:23:08;;;;;;;;;;;26.80;83.00;;;;;;5056282;28;19913;-72
2022/11/10 03:25:34;;;;;;;;;;;27.00;83.50;;;;;;5069322;28;19916;-73
2022/11/10 03:28:01;;;;;;;;;;;27.10;83.30;;;;;;5068246;28;19954;-73
2022/11/10 03:30:28;;;;;;;;;;;27.00;84.00;;;;;;5069462;28;19913;-72
2022/11/10 03:32:54;;;;;;;;;;;27.00;83.40;;;;;;5066693;28;19927;-74
2022/11/10 03:35:21;;;;;;;;;;;27.10;84.40;;;;;;5066667;28;19939;-73
2022/11/10 03:37:48;;;;;;;;;;;27.40;84.20;;;;;;5063137;28;20294;-74
2022/11/10 03:40:15;;;;;;;;;;;28.00;81.70;;;;;;5064600;28;20717;-74
2022/11/10 03:42:42;;;;;;;;;;;28.50;80.90;;;;;;5066025;28;19920;-74
2022/11/10 03:45:09;;;;;;;;;;;29.00;80.00;;;;;;5063751;28;19997;-74
2022/11/10 03:47:36;;;;;;;;;;;29.40;79.90;;;;;;5059351;28;20034;-72
2022/11/10 03:50:03;;;;;;;;;;;29.60;79.20;;;;;;5067883;28;19916;-72
2022/11/10 03:52:29;;;;;;;;;;;29.80;79.40;;;;;;5062620;28;19984;-73
2022/11/10 03:54:56;;;;;;;;;;;29.90;79.90;;;;;;5067732;28;19916;-72
2022/11/10 03:57:23;;;;;;;;;;;30.00;82.00;;;;;;5059897;28;20012;-72
2022/11/10 03:59:49;;;;;;;;;;;29.70;80.10;;;;;;5066825;28;19912;-74
2022/11/10 04:02:16;;;;;;;;;;;28.90;80.30;;;;;;5064529;28;19923;-73
2022/11/10 04:10:12;;;;;;;;;;;26.90;83.50;;;;;;5068634;28;19927;-72
2022/11/10 04:15:41;;;;;;;;;;;26.00;85.40;;;;;;5069094;28;19920;-73
2022/11/10 04:18:24;;;;;;;;;;;25.70;86.10;;;;;;5065213;28;20007;-72
2022/11/10 04:20:55;;;;;;;;;;;25.60;86.30;;;;;;5067018;28;19927;-73
2022/11/10 04:23:35;;;;;;;;;;;25.50;86.60;;;;;;5075609;28;19923;-74
2022/11/10 04:26:48;;;;;;;;;;;25.50;86.20;;;;;;5075607;28;19959;-74
2022/11/10 04:28:51;;;;;;;;;;;25.50;85.00;;;;;;5051925;28;19920;-75
2022/11/10 04:31:18;;;;;;;;;;;25.90;85.60;;;;;;5071914;28;20352;-75
2022/11/10 04:33:45;;;;;;;;;;;26.10;85.70;;;;;;5076837;28;20256;-74
2022/11/10 04:36:13;;;;;;;;;;;26.40;86.60;;;;;;5064734;28;20353;-73
2022/11/10 04:38:40;;;;;;;;;;;27.00;85.70;;;;;;5065715;28;19963;-73
2022/11/10 04:41:07;;;;;;;;;;;27.40;84.70;;;;;;5066830;28;20361;-75
2022/11/10 04:43:34;;;;;;;;;;;27.80;83.10;;;;;;5076780;28;19985;-75
2022/11/10 04:46:01;;;;;;;;;;;28.10;83.10;;;;;;5073397;28;19912;-73
2022/11/10 04:48:28;;;;;;;;;;;28.20;82.40;;;;;;5068361;28;20300;-72
2022/11/10 04:50:55;;;;;;;;;;;28.20;83.40;;;;;;5072900;28;19978;-74
2022/11/10 04:53:22;;;;;;;;;;;28.20;83.50;;;;;;5071556;28;19922;-73
2022/11/10 04:55:48;;;;;;;;;;;28.00;83.90;;;;;;5071674;28;19913;-73
2022/11/10 04:58:15;;;;;;;;;;;28.00;83.20;;;;;;5068240;28;19948;-74
2022/11/10 05:00:42;;;;;;;;;;;28.00;82.50;;;;;;5062453;28;19923;-77
2022/11/10 05:03:09;;;;;;;;;;;27.80;83.20;;;;;;5061244;28;19919;-73
2022/11/10 05:05:36;;;;;;;;;;;27.60;84.20;;;;;;5064825;28;19964;-73
2022/11/10 05:08:03;;;;;;;;;;;27.80;84.40;;;;;;5069078;28;19921;-72
2022/11/10 05:10:30;;;;;;;;;;;27.90;83.80;;;;;;5079432;28;20672;-73
2022/11/10 05:12:57;;;;;;;;;;;27.80;83.60;;;;;;5070763;28;19920;-73
2022/11/10 05:15:24;;;;;;;;;;;27.90;83.90;;;;;;5068075;28;19916;-72
2022/11/10 05:17:51;;;;;;;;;;;27.80;83.50;;;;;;5070489;28;19959;-73
2022/11/10 05:20:19;;;;;;;;;;;27.70;83.50;;;;;;5066183;28;19973;-72
2022/11/10 05:23:36;;;;;;;;;;;27.30;83.70;;;;;;5069616;28;19939;-72
2022/11/10 05:25:33;;;;;;;;;;;26.90;84.50;;;;;;5062131;28;20278;-73
2022/11/10 05:28:00;;;;;;;;;;;26.60;85.20;;;;;;5060938;28;20359;-73
2022/11/10 05:30:27;;;;;;;;;;;26.70;84.90;;;;;;5056457;28;20011;-74
2022/11/10 05:32:54;;;;;;;;;;;26.70;85.80;;;;;;5062848;28;19921;-74
2022/11/10 05:35:20;;;;;;;;;;;26.90;85.20;;;;;;5063842;28;19923;-74
2022/11/10 05:37:47;;;;;;;;;;;26.90;85.00;;;;;;5063076;28;20370;-73
2022/11/10 05:40:14;;;;;;;;;;;26.90;85.20;;;;;;5060379;28;20304;-71
2022/11/10 05:42:44;;;;;;;;;;;26.70;85.60;;;;;;5067893;28;20011;-72
2022/11/10 05:45:11;;;;;;;;;;;26.30;86.30;;;;;;5069905;28;19916;-73
2022/11/10 05:47:38;;;;;;;;;;;26.10;86.90;;;;;;5060792;28;19925;-72
2022/11/10 05:50:07;;;;;;;;;;;26.10;87.00;;;;;;5063151;28;20012;-72
2022/11/10 05:52:34;;;;;;;;;;;26.20;87.00;;;;;;5064674;28;20287;-72
2022/11/10 05:55:01;;;;;;;;;;;26.30;86.30;;;;;;5063260;28;19955;-71
2022/11/10 05:57:27;;;;;;;;;;;26.30;86.50;;;;;;5043645;28;19924;-74
2022/11/10 05:59:54;;;;;;;;;;;26.10;86.40;;;;;;5063343;28;19931;-74
2022/11/10 06:02:21;;;;;;;;;;;25.90;86.40;;;;;;5062745;28;19912;-74
2022/11/10 06:04:47;;;;;;;;;;;25.80;86.60;;;;;;5061536;28;20007;-72
2022/11/10 06:07:14;;;;;;;;;;;25.70;86.80;;;;;;5068525;28;19912;-74
2022/11/10 06:09:41;;;;;;;;;;;25.70;87.00;;;;;;5063194;28;19939;-73
2022/11/10 06:12:07;;;;;;;;;;;25.70;87.20;;;;;;5061660;28;20378;-73
2022/11/10 06:14:34;;;;;;;;;;;25.80;86.70;;;;;;5062613;28;19928;-74
2022/11/10 06:17:01;;;;;;;;;;;25.80;86.20;;;;;;5063474;28;19924;-74
2022/11/10 06:19:27;;;;;;;;;;;25.70;86.20;;;;;;5061664;28;19916;-72
2022/11/10 06:21:54;;;;;;;;;;;25.70;86.20;;;;;;5059799;28;19920;-71
2022/11/10 06:24:21;;;;;;;;;;;25.50;85.60;;;;;;5059516;28;19921;-72
2022/11/10 06:26:47;;;;;;;;;;;25.20;85.60;;;;;;5063264;28;20013;-74
2022/11/10 06:29:18;;;;;;;;;;;25.00;86.60;;;;;;5058058;28;19922;-72
2022/11/10 06:31:45;;;;;;;;;;;25.00;86.30;;;;;;5054016;28;20046;-73
2022/11/10 06:34:11;;;;;;;;;;;24.90;86.10;;;;;;5041056;28;19916;-72
2022/11/10 06:36:39;;;;;;;;;;;24.80;86.30;;;;;;5058423;28;19917;-74
2022/11/10 06:39:06;;;;;;;;;;;24.80;86.60;;;;;;5062425;28;19916;-86
2022/11/10 06:41:33;;;;;;;;;;;24.90;86.30;;;;;;5067121;28;19920;-81
2022/11/10 06:43:59;;;;;;;;;;;24.70;85.50;;;;;;5069492;28;19912;-84
2022/11/10 06:46:26;;;;;;;;;;;24.60;86.10;;;;;;5068351;28;19912;-85
2022/11/10 06:48:53;;;;;;;;;;;24.40;85.90;;;;;;5066981;28;20343;-76
2022/11/10 06:51:19;;;;;;;;;;;24.30;86.40;;;;;;5065866;28;19965;-86
2022/11/10 06:53:46;;;;;;;;;;;24.20;86.10;;;;;;5061116;28;19927;-85
2022/11/10 06:56:13;;;;;;;;;;;24.30;86.70;;;;;;5068955;28;19913;-85
2022/11/10 06:58:39;;;;;;;;;;;24.30;86.50;;;;;;5068830;28;19971;-79
2022/11/10 07:01:06;;;;;;;;;;;24.30;86.20;;;;;;5071220;28;19923;-80
2022/11/10 07:03:34;;;;;;;;;;;24.30;86.50;;;;;;5070898;28;20011;-79
2022/11/10 07:06:01;;;;;;;;;;;24.20;86.00;;;;;;5053422;28;20794;-80
2022/11/10 07:08:28;;;;;;;;;;;23.90;86.80;;;;;;5047245;28;20294;-81
2022/11/10 07:10:55;;;;;;;;;;;23.70;87.10;;;;;;5070179;28;19912;-80
2022/11/10 07:13:22;;;;;;;;;;;23.70;87.20;;;;;;5069535;28;20621;-79
2022/11/10 07:15:49;;;;;;;;;;;23.60;87.50;;;;;;5070070;28;19921;-80
2022/11/10 07:18:15;;;;;;;;;;;23.50;87.40;;;;;;5060980;28;20313;-80
2022/11/10 07:20:42;;;;;;;;;;;23.30;87.90;;;;;;5064830;28;19916;-83
2022/11/10 07:23:09;;;;;;;;;;;23.20;88.70;;;;;;5066102;28;20780;-79
2022/11/10 07:25:36;;;;;;;;;;;23.00;88.90;;;;;;5070857;28;20273;-83
2022/11/10 07:28:09;;;;;;;;;;;22.90;89.50;;;;;;5062131;28;19960;-82
2022/11/10 07:30:35;;;;;;;;;;;22.70;89.10;;;;;;5070638;28;20447;-83
2022/11/10 07:33:07;;;;;;;;;;;22.60;89.80;;;;;;5067312;28;19920;-80
2022/11/10 07:35:33;;;;;;;;;;;22.60;89.70;;;;;;5072912;28;20427;-82
2022/11/10 07:38:04;;;;;;;;;;;22.50;89.80;;;;;;5072142;28;19967;-81
2022/11/10 07:40:31;;;;;;;;;;;22.40;90.10;;;;;;5077688;28;19913;-81
2022/11/10 07:42:58;;;;;;;;;;;22.40;90.20;;;;;;5074342;28;19919;-79
2022/11/10 07:45:26;;;;;;;;;;;22.30;90.50;;;;;;5072539;28;19987;-81
2022/11/10 07:47:57;;;;;;;;;;;22.20;90.60;;;;;;5070518;28;19912;-80
2022/11/10 07:50:24;;;;;;;;;;;22.10;90.70;;;;;;5070565;28;19912;-82
2022/11/10 07:52:50;;;;;;;;;;;21.90;90.60;;;;;;5073406;28;19963;-81
2022/11/10 07:55:17;;;;;;;;;;;21.80;90.80;;;;;;5073317;28;19912;-83
2022/11/10 07:57:44;;;;;;;;;;;21.80;90.90;;;;;;5065305;28;20359;-82
2022/11/10 08:00:14;;;;;;;;;;;21.70;91.10;;;;;;5059003;28;19919;-81
2022/11/10 08:02:41;;;;;;;;;;;21.70;91.30;;;;;;5066942;28;19921;-82
2022/11/10 08:05:07;;;;;;;;;;;21.60;91.50;;;;;;5055167;28;19913;-81
2022/11/10 08:07:34;;;;;;;;;;;21.50;91.50;;;;;;5058954;28;19920;-77
2022/11/10 08:10:01;;;;;;;;;;;21.50;91.70;;;;;;5061547;28;19912;-82
2022/11/10 08:12:27;;;;;;;;;;;21.40;91.80;;;;;;5066613;28;19909;-84
2022/11/10 08:14:54;;;;;;;;;;;21.40;91.90;;;;;;5071214;28;19916;-83
2022/11/10 08:17:21;;;;;;;;;;;21.30;91.90;;;;;;5058928;28;20046;-81
2022/11/10 08:19:47;;;;;;;;;;;21.30;92.10;;;;;;5070628;28;20281;-83
2022/11/10 08:22:14;;;;;;;;;;;21.20;92.10;;;;;;5071678;28;20286;-82
2022/11/10 08:24:41;;;;;;;;;;;21.10;92.30;;;;;;5075189;28;19916;-82
2022/11/10 08:27:07;;;;;;;;;;;21.10;92.40;;;;;;5071280;28;19946;-81
2022/11/10 08:29:37;;;;;;;;;;;21.00;92.70;;;;;;5070485;28;19977;-82
2022/11/10 08:32:04;;;;;;;;;;;20.80;92.90;;;;;;5068248;28;19912;-77
2022/11/10 08:34:30;;;;;;;;;;;20.70;93.20;;;;;;5074646;28;19909;-83
2022/11/10 08:36:57;;;;;;;;;;;20.60;93.40;;;;;;5072020;28;19924;-82
2022/11/10 08:39:24;;;;;;;;;;;20.50;93.60;;;;;;5063667;28;19948;-79
2022/11/10 08:41:50;;;;;;;;;;;20.40;93.80;;;;;;5062979;28;19912;-77
2022/11/10 08:44:17;;;;;;;;;;;20.40;94.00;;;;;;5073782;28;19919;-83
2022/11/10 08:46:44;;;;;;;;;;;20.30;94.10;;;;;;5072526;28;20369;-81
2022/11/10 08:49:10;;;;;;;;;;;20.20;94.30;;;;;;5066782;28;20354;-82
2022/11/10 08:51:37;;;;;;;;;;;20.20;94.50;;;;;;5071610;28;19920;-78
2022/11/10 08:54:04;;;;;;;;;;;20.10;94.60;;;;;;5069743;28;20004;-81
2022/11/10 08:56:30;;;;;;;;;;;20.00;94.80;;;;;;5072093;28;19931;-76
2022/11/10 08:58:57;;;;;;;;;;;20.00;95.00;;;;;;5068613;28;19924;-72
2022/11/10 09:01:23;;;;;;;;;;;19.90;95.20;;;;;;5068237;28;19916;-76
2022/11/10 09:03:50;;;;;;;;;;;19.90;95.40;;;;;;5060769;28;19913;-80
2022/11/10 09:06:17;;;;;;;;;;;19.90;95.50;;;;;;5063323;28;19958;-76
2022/11/10 09:08:43;;;;;;;;;;;19.80;95.70;;;;;;5069947;28;19932;-81
2022/11/10 09:11:10;;;;;;;;;;;19.80;95.90;;;;;;5054985;28;20042;-80
2022/11/10 09:13:37;;;;;;;;;;;19.70;96.10;;;;;;5071984;28;19982;-78
2022/11/10 09:16:04;;;;;;;;;;;19.70;96.40;;;;;;5062950;28;19920;-81
2022/11/10 09:18:31;;;;;;;;;;;19.60;96.60;;;;;;5071520;28;20038;-79
2022/11/10 09:20:57;;;;;;;;;;;19.60;96.80;;;;;;5054432;28;19920;-78
2022/11/10 09:23:25;;;;;;;;;;;19.50;97.00;;;;;;5069419;28;19923;-82
2022/11/10 09:25:53;;;;;;;;;;;19.50;97.10;;;;;;5061153;28;20351;-79
2022/11/10 09:28:20;;;;;;;;;;;19.40;97.30;;;;;;5071073;28;19917;-75
2022/11/10 09:30:47;;;;;;;;;;;19.40;97.50;;;;;;5070857;28;19951;-79
2022/11/10 09:33:14;;;;;;;;;;;19.30;97.60;;;;;;5064080;28;19968;-81
2022/11/10 09:35:41;;;;;;;;;;;19.30;97.70;;;;;;5060801;28;20266;-81
2022/11/10 09:38:08;;;;;;;;;;;19.30;97.90;;;;;;5067230;28;19920;-81
2022/11/10 09:40:51;;;;;;;;;;;19.20;97.90;;;;;;5068218;28;20383;-81
2022/11/10 09:43:20;;;;;;;;;;;19.20;98.00;;;;;;5067399;28;19916;-83
2022/11/10 09:45:49;;;;;;;;;;;19.10;98.30;;;;;;5069997;28;19913;-79
2022/11/10 09:48:15;;;;;;;;;;;19.10;98.40;;;;;;5061839;28;19943;-79
2022/11/10 09:51:08;;;;;;;;;;;19.10;98.50;;;;;;5068169;28;19920;-79
2022/11/10 09:53:34;;;;;;;;;;;19.10;98.50;;;;;;5061144;28;19913;-79
2022/11/10 09:56:05;;;;;;;;;;;19.10;98.60;;;;;;5054631;28;19972;-81
2022/11/10 09:58:34;;;;;;;;;;;19.10;98.60;;;;;;5064686;28;20439;-80
2022/11/10 10:01:13;;;;;;;;;;;19.10;98.70;;;;;;5060308;28;20401;-79
2022/11/10 10:03:45;;;;;;;;;;;19.10;98.80;;;;;;5066334;28;19946;-79
2022/11/10 10:06:13;;;;;;;;;;;19.00;99.00;;;;;;5068842;28;20659;-80
2022/11/10 10:08:40;;;;;;;;;;;19.00;99.00;;;;;;5057807;28;19929;-80
2022/11/10 10:11:19;;;;;;;;;;;19.00;99.10;;;;;;5069375;28;19923;-79
2022/11/10 10:14:01;;;;;;;;;;;18.90;99.20;;;;;;5063226;28;19916;-73
2022/11/10 10:16:54;;;;;;;;;;;18.90;99.40;;;;;;5058118;28;19917;-74
2022/11/10 10:19:41;;;;;;;;;;;18.80;99.50;;;;;;5028869;28;19974;-74
2022/11/10 10:22:07;;;;;;;;;;;18.80;99.60;;;;;;5060714;28;20389;-77
2022/11/10 10:24:37;;;;;;;;;;;18.70;99.70;;;;;;5068331;28;19913;-76
2022/11/10 10:27:06;;;;;;;;;;;18.70;99.80;;;;;;5068078;28;19923;-76
2022/11/10 10:29:38;;;;;;;;;;;18.70;99.90;;;;;;5059198;28;19925;-79
2022/11/10 10:32:10;;;;;;;;;;;18.60;99.90;;;;;;5068356;28;19961;-76
2022/11/10 10:34:36;;;;;;;;;;;18.60;99.90;;;;;;5059572;28;19920;-76
2022/11/10 10:37:03;;;;;;;;;;;18.50;99.90;;;;;;5060079;28;20018;-76
2022/11/10 10:39:50;;;;;;;;;;;18.50;99.90;;;;;;5066899;28;19917;-75
2022/11/10 10:42:23;;;;;;;;;;;18.50;99.90;;;;;;5065811;28;19974;-77
2022/11/10 10:45:10;;;;;;;;;;;18.50;99.90;;;;;;5061966;28;19923;-78
2022/11/10 10:47:37;;;;;;;;;;;18.40;99.90;;;;;;5066620;28;20014;-80
2022/11/10 10:50:22;;;;;;;;;;;18.40;99.90;;;;;;5063951;28;19986;-76
2022/11/10 10:53:03;;;;;;;;;;;18.40;99.90;;;;;;5056157;28;20374;-78
2022/11/10 10:55:30;;;;;;;;;;;18.40;99.90;;;;;;5066392;28;19919;-77
2022/11/10 10:58:19;;;;;;;;;;;18.40;99.90;;;;;;5065604;28;19921;-77
2022/11/10 11:00:48;;;;;;;;;;;18.50;99.90;;;;;;5029118;28;19912;-75
2022/11/10 11:03:34;;;;;;;;;;;18.40;99.90;;;;;;5055424;28;19917;-77
2022/11/10 11:06:01;;;;;;;;;;;18.40;99.90;;;;;;5065080;28;20278;-78
2022/11/10 11:08:28;;;;;;;;;;;18.40;99.90;;;;;;5058719;28;19989;-76
2022/11/10 11:10:55;;;;;;;;;;;18.30;99.90;;;;;;5063297;28;20679;-76
2022/11/10 11:13:21;;;;;;;;;;;18.20;99.90;;;;;;5064438;28;19913;-75
2022/11/10 11:16:07;;;;;;;;;;;18.20;99.90;;;;;;5066415;28;20325;-78
2022/11/10 11:18:35;;;;;;;;;;;18.20;99.90;;;;;;5079699;28;19967;-72
2022/11/10 11:21:07;;;;;;;;;;;18.20;99.90;;;;;;5078665;28;19923;-75
2022/11/10 11:23:40;;;;;;;;;;;18.10;99.90;;;;;;5079663;28;19913;-73
2022/11/10 11:26:27;;;;;;;;;;;18.10;99.90;;;;;;5064981;28;20282;-75
2022/11/10 11:29:06;;;;;;;;;;;18.00;99.90;;;;;;5060106;28;20378;-75
2022/11/10 11:31:40;;;;;;;;;;;18.00;99.90;;;;;;5067763;28;19958;-76
2022/11/10 11:34:22;;;;;;;;;;;18.00;99.90;;;;;;5054554;28;20305;-77
2022/11/10 11:36:56;;;;;;;;;;;17.90;99.90;;;;;;5069133;28;19927;-76
2022/11/10 11:39:26;;;;;;;;;;;17.90;99.90;;;;;;5062391;28;20393;-76
2022/11/10 11:41:55;;;;;;;;;;;17.80;99.90;;;;;;5066859;28;19916;-78
2022/11/10 11:44:31;;;;;;;;;;;17.80;99.90;;;;;;5066350;28;19920;-76
2022/11/10 11:47:08;;;;;;;;;;;17.70;99.90;;;;;;5058174;28;19970;-73
2022/11/10 11:49:53;;;;;;;;;;;17.70;99.90;;;;;;5063790;28;19935;-75
2022/11/10 11:52:25;;;;;;;;;;;17.60;99.90;;;;;;5064057;28;19982;-77
2022/11/10 11:55:21;;;;;;;;;;;17.60;99.90;;;;;;5054807;28;19913;-77
2022/11/10 11:57:50;;;;;;;;;;;17.50;99.90;;;;;;4986824;28;19926;-74
2022/11/10 12:00:18;;;;;;;;;;;17.50;99.90;;;;;;5065964;28;19920;-76
2022/11/10 12:03:02;;;;;;;;;;;17.40;99.90;;;;;;5064309;28;19913;-75
2022/11/10 12:05:32;;;;;;;;;;;17.40;99.90;;;;;;5060424;28;20570;-75
2022/11/10 12:08:01;;;;;;;;;;;17.40;99.90;;;;;;5058915;28;19951;-72
2022/11/10 12:10:28;;;;;;;;;;;17.30;99.90;;;;;;5054737;28;20287;-75
2022/11/10 12:13:01;;;;;;;;;;;17.20;99.90;;;;;;5062157;28;19912;-74
2022/11/10 12:15:35;;;;;;;;;;;17.20;99.90;;;;;;5066911;28;19920;-75
2022/11/10 12:18:11;;;;;;;;;;;17.10;99.90;;;;;;5065416;28;20373;-75
2022/11/10 12:20:53;;;;;;;;;;;17.10;99.90;;;;;;5067208;28;19913;-76
2022/11/10 12:23:22;;;;;;;;;;;17.00;99.90;;;;;;5058063;28;19916;-76
2022/11/10 12:25:58;;;;;;;;;;;16.90;99.90;;;;;;5063103;28;19913;-72
2022/11/10 12:28:28;;;;;;;;;;;16.90;99.90;;;;;;5060694;28;19983;-76
2022/11/10 12:30:57;;;;;;;;;;;16.80;99.90;;;;;;5065041;28;20056;-78
2022/11/10 12:33:30;;;;;;;;;;;16.70;99.90;;;;;;5065116;28;20380;-71
2022/11/10 12:35:57;;;;;;;;;;;16.70;99.90;;;;;;5065355;28;20324;-76
2022/11/10 12:38:44;;;;;;;;;;;16.60;99.90;;;;;;5062741;28;20015;-75
2022/11/10 12:41:13;;;;;;;;;;;16.60;99.90;;;;;;5057060;28;20382;-75
2022/11/10 12:43:58;;;;;;;;;;;16.50;99.90;;;;;;5058279;28;19917;-74
2022/11/10 12:46:25;;;;;;;;;;;16.50;99.90;;;;;;5071172;28;19919;-73
2022/11/10 12:48:51;;;;;;;;;;;16.50;99.90;;;;;;5072807;28;19999;-76
2022/11/10 12:51:38;;;;;;;;;;;16.40;99.90;;;;;;5066589;28;20274;-76
2022/11/10 12:54:09;;;;;;;;;;;16.30;99.90;;;;;;5063516;28;20433;-74
2022/11/10 12:56:45;;;;;;;;;;;16.30;99.90;;;;;;5062974;28;19921;-74
2022/11/10 12:59:21;;;;;;;;;;;16.30;99.90;;;;;;5068902;28;19975;-75
2022/11/10 13:01:50;;;;;;;;;;;16.30;99.90;;;;;;5069286;28;19916;-76
2022/11/10 13:04:18;;;;;;;;;;;16.30;99.90;;;;;;5068237;28;20030;-76
2022/11/10 13:06:53;;;;;;;;;;;16.20;99.90;;;;;;5064505;28;19921;-77
2022/11/10 13:09:24;;;;;;;;;;;16.20;99.90;;;;;;5073213;28;20401;-77
2022/11/10 13:12:23;;;;;;;;;;;16.10;99.90;;;;;;5068484;28;19944;-77
2022/11/10 13:14:52;;;;;;;;;;;16.10;99.90;;;;;;5042059;28;19908;-78
2022/11/10 13:17:28;;;;;;;;;;;16.10;99.90;;;;;;5057067;28;19917;-77
2022/11/10 13:19:56;;;;;;;;;;;16.00;99.90;;;;;;5063619;28;19921;-73
2022/11/10 13:22:42;;;;;;;;;;;16.00;99.90;;;;;;5059068;28;19916;-75
2022/11/10 13:25:27;;;;;;;;;;;16.00;99.90;;;;;;5068989;28;20007;-77
2022/11/10 13:27:54;;;;;;;;;;;15.90;99.90;;;;;;5063300;28;19913;-77
2022/11/10 13:30:42;;;;;;;;;;;15.90;99.90;;;;;;5056930;28;19966;-76
2022/11/10 13:33:30;;;;;;;;;;;15.90;99.90;;;;;;5066266;28;19916;-76
2022/11/10 13:35:57;;;;;;;;;;;15.80;99.90;;;;;;5070881;28;19952;-74
2022/11/10 13:38:34;;;;;;;;;;;15.70;99.90;;;;;;5069046;28;20017;-76
2022/11/10 13:41:13;;;;;;;;;;;15.70;99.90;;;;;;5064432;28;19919;-76
2022/11/10 13:43:47;;;;;;;;;;;15.70;99.90;;;;;;5068953;28;19958;-77
2022/11/10 13:46:16;;;;;;;;;;;15.60;99.90;;;;;;5064790;28;20367;-76
2022/11/10 13:48:42;;;;;;;;;;;15.60;99.90;;;;;;5067989;28;19923;-76
2022/11/10 13:51:27;;;;;;;;;;;15.60;99.90;;;;;;5072719;28;19923;-76
2022/11/10 13:54:17;;;;;;;;;;;15.60;99.90;;;;;;5070412;28;20458;-76
2022/11/10 13:56:50;;;;;;;;;;;15.60;99.90;;;;;;5070016;28;19927;-76
2022/11/10 13:59:28;;;;;;;;;;;15.60;99.90;;;;;;5062138;28;20414;-75
2022/11/10 14:02:14;;;;;;;;;;;15.60;99.90;;;;;;5066505;28;19916;-76
2022/11/10 14:04:42;;;;;;;;;;;15.60;99.90;;;;;;5068026;28;19916;-75
2022/11/10 14:07:16;;;;;;;;;;;15.60;99.90;;;;;;5066823;28;19920;-77
2022/11/10 14:09:53;;;;;;;;;;;15.50;99.90;;;;;;5066482;28;19913;-76
2022/11/10 14:12:40;;;;;;;;;;;15.60;99.90;;;;;;5069357;28;20374;-78
2022/11/10 14:15:14;;;;;;;;;;;15.60;99.90;;;;;;5057904;28;20423;-78
2022/11/10 14:17:46;;;;;;;;;;;15.60;99.90;;;;;;5067269;28;19935;-77
2022/11/10 14:20:28;;;;;;;;;;;15.60;99.90;;;;;;5071413;28;19913;-76
2022/11/10 14:22:55;;;;;;;;;;;15.60;99.90;;;;;;5064070;28;20352;-77
2022/11/10 14:25:29;;;;;;;;;;;15.50;99.90;;;;;;5069927;28;19913;-77
2022/11/10 14:27:55;;;;;;;;;;;15.50;99.90;;;;;;5059699;28;19921;-77
2022/11/10 14:30:26;;;;;;;;;;;15.40;99.90;;;;;;5061416;28;20337;-77
2022/11/10 14:33:02;;;;;;;;;;;15.30;99.90;;;;;;5053940;28;20341;-77
2022/11/10 14:35:31;;;;;;;;;;;15.30;99.90;;;;;;5060442;28;19932;-76
2022/11/10 14:38:03;;;;;;;;;;;15.20;99.90;;;;;;5059107;28;19925;-76
2022/11/10 14:40:30;;;;;;;;;;;15.20;99.90;;;;;;5064478;28;20011;-76
2022/11/10 14:42:57;;;;;;;;;;;15.10;99.90;;;;;;5058499;28;19920;-76